HEBA/HBE METAR and TAF weather

Enter ICAO airport designator
Station Type Date Time Source
HEBA METAR 2019/06/17 13:00 UTC NOAA

HEBA 171300Z 33010KT CAVOK 29/20 Q1011 NOSIG


Station Type Date Time Source
HEBA Decoded METAR 2019/06/17 13:00 UTC NOAA

Alexandria Borg El Arab, Egypt (HEBA) 31-31N 030-10E
Jun 17, 2019 - 09:00 AM EDT / 2019.06.17 1300 UTC
Wind: from the NNW (330 degrees) at 12 MPH (10 KT):0
Visibility: greater than 7 mile(s):0
Temperature: 84 F (29 C)
Dew Point: 68 F (20 C)
Relative Humidity: 58%
Pressure (altimeter): 29.85 in. Hg (1011 hPa)
ob: HEBA 171300Z 33010KT CAVOK 29/20 Q1011 NOSIG
cycle: 13

Station Type Date Time Source
HEBA TAF 2019/06/17 12:00 UTC NOAA

TAF HEBA 171100Z 1712/1818 32010KT 9999 SCT020
TEMPO 1800/1806 VRB03KT 6000 NSC

Example: see airport list